Time;durP1;ratioP1;P1;durP2;ratioP2;P2;SDS_P1;SDS_P2;PMS_P1;PMS_P2;Temp;Humidity;BMP_temperature;BMP_pressure;BME280_temperature;BME280_humidity;BME280_pressure;Samples;Min_cycle;Max_cycle;Signal;HPM_P1;HPM_P2
2021/09/23 00:02:37;;;;;;;8.23;5.50;;;;;;;10.34;62.90;100341.75;5111467;28;20034;-20
2021/09/23 00:05:03;;;;;;;9.32;5.95;;;;;;;10.16;63.20;100331.72;5111580;28;20072;-20
2021/09/23 00:07:28;;;;;;;9.13;6.65;;;;;;;10.44;62.78;100343.94;5111184;28;20031;-20
2021/09/23 00:09:53;;;;;;;8.95;5.57;;;;;;;10.18;63.41;100350.97;5111110;28;20506;-20
2021/09/23 00:12:19;;;;;;;7.45;5.25;;;;;;;10.43;62.13;100343.13;5110990;28;20031;-21
2021/09/23 00:14:44;;;;;;;10.10;5.72;;;;;;;10.60;61.99;100356.84;5110854;28;20027;-21
2021/09/23 00:17:10;;;;;;;8.73;6.18;;;;;;;10.98;60.36;100357.88;5110889;28;20031;-21
2021/09/23 00:19:35;;;;;;;12.13;6.55;;;;;;;11.22;59.69;100361.63;5110771;28;20388;-21
2021/09/23 00:22:01;;;;;;;8.75;6.07;;;;;;;11.29;59.35;100346.38;5110811;28;20024;-20
2021/09/23 00:24:27;;;;;;;10.43;6.20;;;;;;;10.66;61.63;100347.13;5110848;28;20024;-20
2021/09/23 00:26:52;;;;;;;9.93;5.93;;;;;;;10.34;62.54;100338.25;5110407;28;20024;-21
2021/09/23 00:29:18;;;;;;;11.15;6.13;;;;;;;10.48;62.31;100339.00;5111144;28;20503;-20
2021/09/23 00:31:43;;;;;;;9.15;6.38;;;;;;;10.30;62.59;100329.03;5110661;28;20035;-21
2021/09/23 00:34:09;;;;;;;8.20;5.78;;;;;;;10.52;62.02;100349.06;5110354;28;20058;-20
2021/09/23 00:36:34;;;;;;;10.10;6.57;;;;;;;10.33;62.27;100309.97;5110420;28;20035;-22
2021/09/23 00:39:00;;;;;;;8.80;5.95;;;;;;;10.22;63.60;100338.06;5110643;28;20032;-23
2021/09/23 00:41:25;;;;;;;9.52;6.40;;;;;;;10.42;62.56;100346.84;5110769;28;20891;-23
2021/09/23 00:43:51;;;;;;;8.75;6.50;;;;;;;10.61;61.24;100328.31;5110493;28;20399;-23
2021/09/23 00:46:16;;;;;;;10.32;7.32;;;;;;;10.69;60.98;100341.41;5110468;28;20039;-22
2021/09/23 00:48:43;;;;;;;10.48;6.88;;;;;;;10.81;61.11;100339.69;5110015;28;20031;-22
2021/09/23 00:51:09;;;;;;;9.45;6.68;;;;;;;10.95;60.35;100334.25;5110287;28;20038;-23
2021/09/23 00:53:34;;;;;;;8.50;6.78;;;;;;;10.45;61.86;100341.06;5110169;28;20027;-21
2021/09/23 00:56:00;;;;;;;9.57;6.90;;;;;;;10.20;62.97;100338.25;5110134;28;20028;-20
2021/09/23 00:58:25;;;;;;;9.75;7.20;;;;;;;10.36;62.93;100331.69;5091940;28;20032;-21
2021/09/23 01:00:51;;;;;;;11.88;7.20;;;;;;;10.37;62.52;100325.31;5109769;28;20034;-21
2021/09/23 01:03:16;;;;;;;11.13;7.15;;;;;;;10.41;62.13;100318.53;5109975;28;20115;-20
2021/09/23 01:05:42;;;;;;;10.30;7.43;;;;;;;10.10;63.26;100327.22;5109935;28;20024;-20
2021/09/23 01:08:07;;;;;;;9.45;7.00;;;;;;;9.78;64.73;100316.41;5109958;28;20802;-20
2021/09/23 01:10:33;;;;;;;9.82;7.25;;;;;;;9.72;64.84;100324.41;5108936;28;20522;-21
2021/09/23 01:12:58;;;;;;;11.93;7.30;;;;;;;9.92;64.17;100313.75;5109909;28;20044;-21
2021/09/23 01:15:24;;;;;;;9.48;6.60;;;;;;;9.98;63.61;100307.59;5110013;28;20023;-20
2021/09/23 01:17:50;;;;;;;17.08;7.22;;;;;;;10.25;62.46;100325.13;5109963;28;20854;-21
2021/09/23 01:20:16;;;;;;;10.23;6.90;;;;;;;10.17;62.60;100321.88;5109852;28;20051;-21
2021/09/23 01:22:42;;;;;;;11.63;7.43;;;;;;;10.06;63.24;100318.00;5109387;28;20394;-20
2021/09/23 01:25:08;;;;;;;14.75;7.72;;;;;;;9.93;63.42;100316.22;5109821;28;20024;-20
2021/09/23 01:27:34;;;;;;;10.50;7.25;;;;;;;9.84;64.25;100312.13;5109824;28;20035;-21
2021/09/23 01:30:01;;;;;;;10.07;7.18;;;;;;;10.08;63.11;100317.81;5109814;28;20023;-20
2021/09/23 01:32:26;;;;;;;12.07;7.45;;;;;;;10.15;62.55;100318.59;5109400;28;20055;-21
2021/09/23 01:34:51;;;;;;;13.10;7.93;;;;;;;10.15;62.37;100321.25;5109165;28;20047;-20
2021/09/23 01:37:17;;;;;;;14.20;7.95;;;;;;;10.09;62.42;100314.91;5109623;28;20031;-22
2021/09/23 01:39:42;;;;;;;11.90;8.23;;;;;;;10.42;61.77;100324.66;5109440;28;20039;-23
2021/09/23 01:42:08;;;;;;;10.27;7.63;;;;;;;10.36;62.05;100321.03;5109470;28;20066;-22
2021/09/23 01:44:34;;;;;;;12.48;8.15;;;;;;;10.33;61.58;100326.75;5109245;28;20027;-22
2021/09/23 01:46:59;;;;;;;11.50;8.40;;;;;;;10.20;61.00;100308.13;5109334;28;20035;-23
2021/09/23 01:49:25;;;;;;;12.85;8.27;;;;;;;10.13;61.67;100324.13;5109404;28;20028;-23
2021/09/23 01:51:51;;;;;;;11.05;8.25;;;;;;;10.42;60.75;100324.66;5109267;28;20041;-23
2021/09/23 01:54:16;;;;;;;12.35;8.73;;;;;;;10.04;61.60;100331.53;5109117;28;20057;-23
2021/09/23 01:56:42;;;;;;;13.02;9.05;;;;;;;10.17;61.79;100322.69;5109381;28;20395;-22
2021/09/23 01:59:07;;;;;;;16.33;10.25;;;;;;;9.78;62.70;100299.63;5109456;28;20036;-22
2021/09/23 02:01:33;;;;;;;14.77;10.15;;;;;;;9.75;63.55;100324.84;5091078;28;20409;-21
2021/09/23 02:03:59;;;;;;;17.33;10.70;;;;;;;9.57;64.03;100312.16;5109116;28;20031;-21
2021/09/23 02:06:25;;;;;;;14.65;9.15;;;;;;;9.98;62.33;100324.38;5109335;28;20027;-20
2021/09/23 02:08:50;;;;;;;12.15;9.18;;;;;;;9.46;63.60;100310.13;5108809;28;20403;-20
2021/09/23 02:11:16;;;;;;;14.38;9.75;;;;;;;9.85;63.50;100337.75;5109176;28;20035;-21
2021/09/23 02:13:41;;;;;;;14.88;9.63;;;;;;;10.06;62.96;100340.13;5108983;28;20023;-21
2021/09/23 02:16:07;;;;;;;11.23;9.00;;;;;;;9.38;65.50;100313.00;5109056;28;20062;-21
2021/09/23 02:18:32;;;;;;;12.43;9.73;;;;;;;9.32;65.59;100332.44;5108901;28;20031;-20
2021/09/23 02:20:58;;;;;;;11.85;8.98;;;;;;;9.44;65.09;100322.81;5109161;28;20028;-21
2021/09/23 02:23:23;;;;;;;13.30;9.02;;;;;;;9.50;64.72;100326.47;5094718;28;20026;-21
2021/09/23 02:25:49;;;;;;;11.55;8.88;;;;;;;9.35;65.22;100314.19;5113130;28;20024;-21
2021/09/23 02:28:14;;;;;;;11.80;8.40;;;;;;;9.60;64.54;100322.41;5113087;28;20112;-20
2021/09/23 02:30:40;;;;;;;13.13;8.75;;;;;;;9.44;64.73;100323.63;5112638;28;20035;-20
2021/09/23 02:33:05;;;;;;;13.10;9.27;;;;;;;9.67;63.71;100306.41;5112977;28;20066;-21
2021/09/23 02:35:31;;;;;;;11.73;8.38;;;;;;;9.20;65.63;100324.25;5113074;28;20027;-21
2021/09/23 02:37:56;;;;;;;14.00;9.20;;;;;;;9.07;66.65;100338.31;5112748;28;20039;-20
2021/09/23 02:40:22;;;;;;;13.18;8.57;;;;;;;9.07;66.51;100333.00;5112820;28;20055;-20
2021/09/23 02:42:47;;;;;;;13.88;8.98;;;;;;;9.00;66.98;100332.19;5112527;28;20032;-20
2021/09/23 02:45:13;;;;;;;13.27;9.00;;;;;;;8.92;66.99;100335.03;5112630;28;20028;-20
2021/09/23 02:47:38;;;;;;;12.95;9.18;;;;;;;9.11;66.54;100342.22;5112759;28;20118;-21
2021/09/23 02:50:04;;;;;;;11.02;8.65;;;;;;;9.18;65.47;100319.09;5112555;28;20160;-20
2021/09/23 02:52:30;;;;;;;14.05;9.15;;;;;;;9.37;64.73;100335.28;5112431;28;20062;-21
2021/09/23 02:54:55;;;;;;;12.07;9.15;;;;;;;8.94;66.18;100327.66;5112354;28;20024;-20
2021/09/23 02:57:21;;;;;;;12.73;8.35;;;;;;;8.88;66.54;100328.47;5112460;28;20034;-21
2021/09/23 02:59:46;;;;;;;14.48;8.68;;;;;;;8.71;66.87;100309.41;5112265;28;20027;-20
2021/09/23 03:02:12;;;;;;;13.00;8.82;;;;;;;8.74;67.24;100317.78;5112501;28;20056;-21
2021/09/23 03:04:37;;;;;;;9.88;8.27;;;;;;;8.85;66.22;100327.84;5112251;28;20058;-20
2021/09/23 03:07:03;;;;;;;9.93;8.00;;;;;;;8.57;67.78;100330.63;5112719;28;20088;-20
2021/09/23 03:09:28;;;;;;;13.80;8.50;;;;;;;8.59;66.96;100323.28;5112576;28;20353;-21
2021/09/23 03:11:54;;;;;;;14.75;10.32;;;;;;;8.65;66.44;100313.69;5112249;28;20032;-20
2021/09/23 03:14:19;;;;;;;11.00;7.55;;;;;;;8.42;67.45;100317.50;5112143;28;20055;-21
2021/09/23 03:16:45;;;;;;;12.55;8.43;;;;;;;8.62;66.91;100319.38;5111773;28;20479;-20
2021/09/23 03:19:10;;;;;;;11.88;8.60;;;;;;;8.52;66.61;100305.66;5112180;28;20023;-20
2021/09/23 03:21:37;;;;;;;14.00;9.32;;;;;;;8.47;66.85;100295.63;5111968;28;20042;-20
2021/09/23 03:24:03;;;;;;;12.45;8.43;;;;;;;8.05;68.18;100303.59;5112143;28;20031;-21
2021/09/23 03:26:29;;;;;;;12.23;9.10;;;;;;;8.21;67.61;100307.78;5112064;28;20556;-21
2021/09/23 03:28:54;;;;;;;11.68;8.32;;;;;;;8.06;68.61;100323.00;5111606;28;20036;-20
2021/09/23 03:31:20;;;;;;;13.15;9.02;;;;;;;8.30;67.58;100321.69;5111850;28;20414;-21
2021/09/23 03:33:45;;;;;;;14.70;9.18;;;;;;;8.49;66.86;100319.34;5110527;28;20423;-20
2021/09/23 03:36:10;;;;;;;12.57;8.25;;;;;;;8.51;66.63;100333.28;5111709;28;20036;-20
2021/09/23 03:38:36;;;;;;;12.90;9.10;;;;;;;8.48;66.07;100338.97;5111625;28;20035;-21
2021/09/23 03:41:01;;;;;;;12.35;8.32;;;;;;;8.04;67.18;100320.53;5111861;28;20055;-21
2021/09/23 03:43:27;;;;;;;13.52;8.23;;;;;;;7.89;67.75;100330.47;5112073;28;20039;-21
2021/09/23 03:45:53;;;;;;;18.55;9.90;;;;;;;7.98;67.49;100339.09;5111693;28;20023;-21
2021/09/23 03:48:22;;;;;;;11.35;8.05;;;;;;;7.99;67.17;100344.22;5111641;28;20502;-21
2021/09/23 03:50:47;;;;;;;19.02;9.55;;;;;;;8.34;65.64;100354.84;5093312;28;20031;-20
2021/09/23 03:53:13;;;;;;;13.52;8.30;;;;;;;8.59;63.70;100331.25;5111663;28;20031;-21
2021/09/23 03:55:38;;;;;;;11.65;7.68;;;;;;;8.36;64.23;100336.84;5110859;28;20027;-20
2021/09/23 03:58:04;;;;;;;21.95;8.70;;;;;;;8.35;64.85;100343.19;5110563;28;20035;-20
2021/09/23 04:00:29;;;;;;;22.50;9.57;;;;;;;8.40;64.81;100353.22;5111392;28;20031;-21
2021/09/23 04:02:55;;;;;;;12.18;8.07;;;;;;;8.30;65.12;100358.91;5111085;28;20032;-20
2021/09/23 04:05:20;;;;;;;16.25;8.13;;;;;;;8.29;64.98;100357.25;5111230;28;20031;-20
2021/09/23 04:07:46;;;;;;;12.45;8.27;;;;;;;8.63;63.18;100347.63;5111254;28;20077;-21
2021/09/23 04:10:12;;;;;;;12.25;7.70;;;;;;;8.59;63.50;100352.50;5111134;28;20032;-20
2021/09/23 04:12:37;;;;;;;14.00;8.27;;;;;;;8.85;62.09;100357.09;5110758;28;20032;-20
2021/09/23 04:15:04;;;;;;;14.90;9.27;;;;;;;9.01;62.00;100355.09;5110972;28;20084;-20
2021/09/23 04:17:29;;;;;;;17.27;10.00;;;;;;;8.74;62.48;100344.38;5110928;28;20035;-20
2021/09/23 04:19:55;;;;;;;16.60;10.30;;;;;;;8.62;63.73;100361.91;5110887;28;20027;-21
2021/09/23 04:22:20;;;;;;;16.70;10.05;;;;;;;8.51;64.22;100354.53;5110950;28;20089;-21
2021/09/23 04:24:46;;;;;;;16.20;9.75;;;;;;;8.78;63.07;100361.56;5110692;28;20044;-20
2021/09/23 04:27:12;;;;;;;22.27;11.82;;;;;;;8.79;63.20;100363.22;5110927;28;20477;-21
2021/09/23 04:29:39;;;;;;;14.35;10.38;;;;;;;8.82;62.82;100352.19;5111149;28;20537;-21
2021/09/23 04:32:06;;;;;;;21.83;9.98;;;;;;;9.11;62.65;100363.50;5110877;28;20050;-20
2021/09/23 04:34:31;;;;;;;17.58;9.40;;;;;;;8.03;65.61;100352.63;5110327;28;20055;-20
2021/09/23 04:36:57;;;;;;;17.27;9.13;;;;;;;8.23;65.46;100373.97;5110806;28;20055;-20
2021/09/23 04:39:22;;;;;;;19.63;9.27;;;;;;;7.88;66.52;100381.13;5110527;28;20027;-21
2021/09/23 04:41:48;;;;;;;13.00;8.65;;;;;;;7.69;67.56;100369.34;5110567;28;20031;-20
2021/09/23 04:44:13;;;;;;;16.92;9.38;;;;;;;7.52;68.29;100366.97;5091939;28;20035;-20
2021/09/23 04:46:39;;;;;;;15.95;9.73;;;;;;;7.57;68.33;100375.16;5110111;28;20031;-20
2021/09/23 04:49:04;;;;;;;23.35;9.50;;;;;;;7.63;68.46;100379.69;5110239;28;20031;-21
2021/09/23 04:51:30;;;;;;;22.30;9.60;;;;;;;7.80;68.33;100379.41;5110249;28;20042;-20
2021/09/23 04:53:55;;;;;;;24.25;9.40;;;;;;;7.98;68.18;100366.47;5110197;28;20069;-21
2021/09/23 04:56:21;;;;;;;14.88;9.90;;;;;;;8.25;67.67;100380.75;5110266;28;20032;-20
2021/09/23 04:58:47;;;;;;;14.73;9.18;;;;;;;8.60;65.97;100345.34;5110001;28;20028;-20
2021/09/23 05:01:12;;;;;;;14.30;9.40;;;;;;;9.17;64.97;100378.66;5091877;28;20032;-20
2021/09/23 05:03:38;;;;;;;13.90;9.68;;;;;;;9.19;64.17;100373.97;5110007;28;20039;-21
2021/09/23 05:06:03;;;;;;;14.63;10.43;;;;;;;9.32;64.33;100378.50;5110156;28;20028;-20
2021/09/23 05:08:29;;;;;;;14.10;10.65;;;;;;;9.45;65.06;100398.97;5110242;28;20034;-20
2021/09/23 05:10:54;;;;;;;16.90;10.13;;;;;;;9.36;65.73;100397.56;5109707;28;20031;-22
2021/09/23 05:13:20;;;;;;;17.02;10.98;;;;;;;9.82;64.27;100399.41;5109869;28;20092;-20
2021/09/23 05:15:45;;;;;;;15.60;9.48;;;;;;;9.71;64.49;100410.69;5110279;28;20027;-21
2021/09/23 05:18:11;;;;;;;20.80;10.63;;;;;;;9.96;63.42;100401.03;5109768;28;20032;-20
2021/09/23 05:20:36;;;;;;;16.10;9.68;;;;;;;10.09;63.54;100410.84;5109673;28;20031;-20
2021/09/23 05:23:02;;;;;;;14.82;9.75;;;;;;;10.23;63.12;100395.66;5109819;28;20036;-20
2021/09/23 05:25:27;;;;;;;14.48;9.57;;;;;;;10.34;63.27;100405.72;5091576;28;20023;-21
2021/09/23 05:27:54;;;;;;;17.23;10.88;;;;;;;10.54;62.47;100410.16;5109587;28;20039;-20
2021/09/23 05:30:20;;;;;;;12.82;10.00;;;;;;;10.72;61.69;100420.97;5109616;28;20027;-21
2021/09/23 05:32:45;;;;;;;14.30;9.77;;;;;;;10.85;61.88;100428.94;5109204;28;20414;-21
2021/09/23 05:35:11;;;;;;;13.18;10.23;;;;;;;10.83;61.58;100411.53;5109364;28;20567;-21
2021/09/23 05:37:36;;;;;;;14.35;10.65;;;;;;;11.07;61.15;100428.63;5109681;28;20034;-21
2021/09/23 05:40:02;;;;;;;14.23;10.23;;;;;;;11.22;60.27;100426.50;5109510;28;20418;-21
2021/09/23 05:42:28;;;;;;;12.60;10.00;;;;;;;11.41;60.87;100445.28;5109424;28;20376;-20
2021/09/23 05:44:53;;;;;;;17.38;10.45;;;;;;;10.96;61.98;100431.97;5109392;28;20043;-20
2021/09/23 05:47:19;;;;;;;15.43;11.82;;;;;;;10.71;63.22;100440.69;5091357;28;20028;-21
2021/09/23 05:49:44;;;;;;;14.23;10.63;;;;;;;10.58;64.33;100446.06;5109549;28;20667;-21
2021/09/23 05:52:10;;;;;;;16.25;11.40;;;;;;;10.71;64.33;100440.69;5109743;28;20491;-21
2021/09/23 05:54:35;;;;;;;15.57;11.05;;;;;;;10.73;63.55;100449.31;5108657;28;20035;-20
2021/09/23 05:57:01;;;;;;;15.23;10.70;;;;;;;10.93;62.68;100435.06;5108611;28;20031;-20
2021/09/23 05:59:27;;;;;;;17.08;11.13;;;;;;;11.14;62.23;100456.13;5109255;28;20471;-20
2021/09/23 06:01:55;;;;;;;15.27;10.88;;;;;;;11.19;62.17;100434.94;5109219;28;20027;-22
2021/09/23 06:04:21;;;;;;;19.35;12.27;;;;;;;11.56;60.93;100453.81;5109293;28;20063;-22
2021/09/23 06:06:47;;;;;;;15.73;11.60;;;;;;;11.68;60.43;100434.44;5109064;28;20143;-22
2021/09/23 06:09:12;;;;;;;17.20;11.63;;;;;;;11.79;60.41;100453.25;5109139;28;20035;-22
2021/09/23 06:11:39;;;;;;;14.82;11.35;;;;;;;11.76;60.28;100442.97;5109094;28;20054;-21
2021/09/23 06:14:05;;;;;;;16.13;12.07;;;;;;;11.78;60.08;100456.13;5108994;28;20115;-21
2021/09/23 06:16:30;;;;;;;17.17;12.25;;;;;;;12.05;60.09;100462.09;5109287;28;20031;-21
2021/09/23 06:18:56;;;;;;;14.80;10.93;;;;;;;12.08;59.60;100469.72;5109027;28;20461;-22
2021/09/23 06:21:21;;;;;;;16.27;10.75;;;;;;;12.38;59.51;100467.19;5109187;28;20030;-22
2021/09/23 06:23:47;;;;;;;16.50;11.93;;;;;;;12.40;58.72;100472.28;5109036;28;20043;-21
2021/09/23 06:26:12;;;;;;;15.85;11.30;;;;;;;12.68;58.16;100471.78;5108974;28;20023;-22
2021/09/23 06:28:38;;;;;;;14.23;10.60;;;;;;;12.91;58.36;100470.28;5109074;28;20181;-21
2021/09/23 06:31:03;;;;;;;14.85;10.27;;;;;;;12.99;57.68;100464.63;5108959;28;20043;-22
2021/09/23 06:33:29;;;;;;;13.82;9.70;;;;;;;12.86;58.19;100469.09;5108529;28;20067;-21
2021/09/23 06:35:54;;;;;;;12.48;9.57;;;;;;;13.07;57.72;100469.69;5090953;28;20066;-22
2021/09/23 06:38:20;;;;;;;16.17;10.32;;;;;;;13.01;57.69;100459.88;5109196;28;20038;-22
2021/09/23 06:40:45;;;;;;;14.18;9.35;;;;;;;13.13;58.13;100467.97;5108478;28;20045;-22
2021/09/23 06:43:11;;;;;;;13.95;10.13;;;;;;;13.29;57.26;100466.53;5108943;28;20416;-22
2021/09/23 06:45:36;;;;;;;14.88;10.35;;;;;;;13.45;57.45;100472.09;5108909;28;20483;-21
2021/09/23 06:48:02;;;;;;;14.43;10.15;;;;;;;13.50;56.92;100454.53;5108726;28;20051;-21
2021/09/23 06:50:27;;;;;;;15.18;10.18;;;;;;;13.68;57.55;100475.88;5108837;28;20024;-21
2021/09/23 06:52:53;;;;;;;12.27;9.40;;;;;;;13.97;56.46;100468.81;5108681;28;20039;-22
2021/09/23 06:55:18;;;;;;;13.82;8.77;;;;;;;14.25;55.74;100475.38;5108503;28;20038;-22
2021/09/23 06:57:44;;;;;;;11.30;7.65;;;;;;;14.36;54.75;100471.06;5108804;28;20392;-21
2021/09/23 07:00:10;;;;;;;8.35;5.50;;;;;;;14.83;52.28;100461.13;5108968;28;20444;-21
2021/09/23 07:02:35;;;;;;;9.75;6.72;;;;;;;15.11;52.85;100456.03;5090505;28;20036;-21
2021/09/23 07:05:01;;;;;;;8.00;5.20;;;;;;;14.90;52.24;100452.13;5090600;28;20024;-22
2021/09/23 07:07:26;;;;;;;8.60;4.47;;;;;;;15.07;50.16;100467.22;5108627;28;20096;-22
2021/09/23 07:09:51;;;;;;;7.28;4.18;;;;;;;15.07;49.06;100461.06;5111455;28;20399;-22
2021/09/23 07:12:17;;;;;;;8.02;4.20;;;;;;;15.15;48.78;100449.13;5112172;28;20038;-21
2021/09/23 07:14:42;;;;;;;6.97;4.35;;;;;;;15.21;48.50;100465.09;5112111;28;20107;-22
2021/09/23 07:17:08;;;;;;;5.45;3.10;;;;;;;15.44;47.59;100460.66;5112125;28;20032;-22
2021/09/23 07:19:33;;;;;;;5.07;3.30;;;;;;;15.32;47.76;100457.22;5112269;28;20030;-21
2021/09/23 07:21:59;;;;;;;6.07;2.90;;;;;;;15.45;47.15;100473.06;5112149;28;20081;-22
2021/09/23 07:24:25;;;;;;;4.63;2.83;;;;;;;15.26;47.43;100450.94;5111659;28;20024;-22
2021/09/23 07:26:50;;;;;;;6.20;3.30;;;;;;;15.30;47.71;100445.91;5111856;28;20034;-21
2021/09/23 07:29:16;;;;;;;4.88;3.17;;;;;;;15.54;46.32;100468.91;5112153;28;20027;-21
2021/09/23 07:31:45;;;;;;;5.63;3.08;;;;;;;15.70;46.19;100453.06;5093603;28;20123;-21
2021/09/23 07:34:11;;;;;;;8.35;3.70;;;;;;;15.88;45.52;100449.34;5111607;28;20127;-22
2021/09/23 07:36:36;;;;;;;5.65;2.95;;;;;;;16.33;43.90;100475.34;5111913;28;20035;-22
2021/09/23 07:39:06;;;;;;;6.45;3.65;;;;;;;16.13;44.92;100457.00;5111655;28;20608;-22
2021/09/23 07:41:38;;;;;;;7.70;3.08;;;;;;;16.31;44.70;100477.47;5111705;28;20054;-21
2021/09/23 07:44:08;;;;;;;5.45;3.10;;;;;;;16.25;44.74;100476.56;5111651;28;20027;-21
2021/09/23 07:46:34;;;;;;;3.83;2.78;;;;;;;16.35;44.20;100487.47;5111390;28;20109;-21
2021/09/23 07:48:59;;;;;;;5.80;3.20;;;;;;;16.30;44.92;100455.09;5111647;28;20032;-21
2021/09/23 07:51:25;;;;;;;4.80;2.53;;;;;;;16.47;44.44;100458.56;5111815;28;20034;-22
2021/09/23 07:53:50;;;;;;;4.28;2.90;;;;;;;16.67;44.36;100467.97;5111392;28;20040;-22
2021/09/23 07:56:16;;;;;;;4.63;3.00;;;;;;;16.53;44.59;100472.94;5111435;28;20031;-22
2021/09/23 07:58:42;;;;;;;5.07;2.75;;;;;;;16.57;43.47;100473.22;5111116;28;20038;-21
2021/09/23 08:01:08;;;;;;;7.75;2.50;;;;;;;16.36;44.37;100466.75;5111504;28;20028;-21
2021/09/23 08:03:34;;;;;;;8.50;3.00;;;;;;;16.63;44.48;100461.47;5111247;28;20506;-22
2021/09/23 08:05:59;;;;;;;6.25;3.10;;;;;;;16.85;44.21;100450.72;5111118;28;20024;-22
2021/09/23 08:08:25;;;;;;;5.57;3.05;;;;;;;16.96;42.87;100465.97;5111273;28;20027;-22
2021/09/23 08:10:50;;;;;;;10.23;4.28;;;;;;;17.20;42.39;100455.72;5111240;28;20036;-22
2021/09/23 08:13:16;;;;;;;9.13;2.75;;;;;;;17.29;41.82;100458.78;5111730;28;20395;-21
2021/09/23 08:15:44;;;;;;;6.43;3.20;;;;;;;17.46;41.71;100464.06;5110990;28;20036;-22
2021/09/23 08:18:09;;;;;;;;;;;;;;;17.91;41.68;100464.75;5111389;28;20054;-21
2021/09/23 08:20:35;;;;;;;4.90;3.03;;;;;;;17.51;40.72;100464.13;5110189;28;20306;-22
2021/09/23 08:23:00;;;;;;;4.25;2.65;;;;;;;17.16;40.99;100443.84;5110929;28;20125;-21
2021/09/23 08:25:26;;;;;;;8.63;3.72;;;;;;;17.82;39.54;100459.00;5110844;28;20028;-21
2021/09/23 08:27:52;;;;;;;6.35;3.25;;;;;;;17.33;40.35;100464.47;5110689;28;20023;-21
2021/09/23 08:30:17;;;;;;;4.50;2.63;;;;;;;17.09;40.06;100451.28;5110728;28;21997;-22
2021/09/23 08:32:43;;;;;;;5.45;3.10;;;;;;;16.75;40.80;100454.06;5110375;28;20028;-21
2021/09/23 08:35:08;;;;;;;5.88;3.03;;;;;;;16.51;40.94;100450.81;5092209;28;20067;-21
2021/09/23 08:37:35;;;;;;;6.93;2.60;;;;;;;17.12;40.32;100442.72;5110581;28;20028;-21
2021/09/23 08:40:00;;;;;;;4.13;2.42;;;;;;;17.95;38.75;100472.06;5110447;28;20089;-22
2021/09/23 08:42:27;;;;;;;6.15;3.00;;;;;;;17.85;38.08;100453.09;5110404;28;20028;-21
2021/09/23 08:44:55;;;;;;;6.00;2.85;;;;;;;17.91;37.89;100438.59;5110313;28;20112;-22
2021/09/23 08:47:20;;;;;;;4.82;2.63;;;;;;;17.93;38.48;100441.84;5092483;28;20024;-21
2021/09/23 08:49:45;;;;;;;3.47;2.03;;;;;;;18.20;37.27;100443.66;5092252;28;20039;-22
2021/09/23 08:52:11;;;;;;;4.45;2.30;;;;;;;18.37;37.14;100449.69;5110288;28;20498;-21
2021/09/23 08:54:36;;;;;;;4.80;2.60;;;;;;;18.26;37.57;100450.69;5110142;28;20035;-21
2021/09/23 08:57:02;;;;;;;4.13;2.45;;;;;;;18.62;36.05;100438.22;5110460;28;20027;-21
2021/09/23 08:59:30;;;;;;;4.40;2.13;;;;;;;18.36;36.55;100449.97;5110203;28;20032;-21
2021/09/23 09:01:56;;;;;;;5.43;2.38;;;;;;;18.01;36.73;100448.66;5110381;28;20020;-22
2021/09/23 09:04:29;;;;;;;5.10;2.28;;;;;;;18.22;36.83;100460.41;5110137;28;20035;-23
2021/09/23 09:06:55;;;;;;;5.57;2.42;;;;;;;18.11;36.81;100442.53;5091951;28;20032;-23
2021/09/23 09:09:21;;;;;;;2.78;1.88;;;;;;;18.29;35.48;100455.59;5110041;28;20035;-23
2021/09/23 09:11:49;;;;;;;4.93;2.67;;;;;;;18.43;35.94;100443.25;5091750;28;20872;-23
2021/09/23 09:14:21;;;;;;;;;;;;;;;19.06;35.50;100458.66;5092692;28;20134;-23
2021/09/23 09:16:46;;;;;;;4.57;2.60;;;;;;;19.17;35.30;100454.94;5109971;28;20030;-24
2021/09/23 09:19:12;;;;;;;5.57;2.55;;;;;;;19.24;34.50;100439.25;5074610;28;20128;-23
2021/09/23 09:21:38;;;;;;;3.67;2.20;;;;;;;19.28;34.23;100450.34;5109807;28;20035;-23
2021/09/23 09:24:06;;;;;;;4.47;2.50;;;;;;;19.49;34.82;100459.28;5109621;28;20096;-23
2021/09/23 09:26:36;;;;;;;3.95;2.30;;;;;;;19.68;34.33;100449.59;5109344;28;20411;-24
2021/09/23 09:29:04;;;;;;;3.58;1.98;;;;;;;19.12;35.57;100454.09;5109731;28;20485;-23
2021/09/23 09:31:30;;;;;;;4.47;2.40;;;;;;;18.81;35.61;100457.50;5108699;28;20058;-24
2021/09/23 09:33:59;;;;;;;8.57;4.03;;;;;;;18.40;36.24;100451.88;5109157;28;20419;-23
2021/09/23 09:36:33;;;;;;;4.55;2.40;;;;;;;18.50;35.74;100455.72;5109560;28;20020;-23
2021/09/23 09:39:06;;;;;;;4.82;2.30;;;;;;;18.84;35.12;100446.19;5109841;28;20024;-23
2021/09/23 09:41:34;;;;;;;4.32;2.40;;;;;;;18.96;35.22;100448.66;5109600;28;20024;-23
2021/09/23 09:44:00;;;;;;;;;;;;;;;18.96;34.93;100439.72;5109812;28;20023;-23
2021/09/23 09:46:27;;;;;;;4.30;2.15;;;;;;;19.28;34.73;100434.94;5109549;28;19918;-23
2021/09/23 09:48:53;;;;;;;5.05;2.58;;;;;;;18.70;35.59;100418.00;5109300;28;20114;-22
2021/09/23 09:51:38;;;;;;;2.83;1.95;;;;;;;19.51;33.68;100419.25;5109265;28;20042;-22
2021/09/23 09:54:04;;;;;;;3.88;1.92;;;;;;;19.26;34.03;100412.75;5109534;28;20032;-22
2021/09/23 09:56:30;;;;;;;3.33;1.95;;;;;;;19.24;33.75;100412.22;5109188;28;20034;-22
2021/09/23 09:59:12;;;;;;;3.88;2.28;;;;;;;19.63;34.17;100430.63;5109298;28;20027;-22
2021/09/23 10:01:39;;;;;;;3.47;2.28;;;;;;;19.08;34.44;100410.56;5109279;28;20036;-22
2021/09/23 10:04:04;;;;;;;3.35;2.45;;;;;;;19.01;34.33;100412.72;5109287;28;20118;-22
2021/09/23 10:06:31;;;;;;;5.03;2.20;;;;;;;19.25;34.38;100413.03;5074209;28;20114;-22
2021/09/23 10:08:57;;;;;;;4.70;2.55;;;;;;;19.73;33.08;100431.75;5109076;28;20482;-22
2021/09/23 10:11:22;;;;;;;4.35;2.30;;;;;;;19.94;32.83;100430.69;5109216;28;20120;-22
2021/09/23 10:13:48;;;;;;;5.43;2.92;;;;;;;19.72;32.90;100422.03;5090964;28;20164;-22
2021/09/23 10:16:13;;;;;;;3.58;2.45;;;;;;;20.06;33.15;100423.09;5090823;28;20031;-22
2021/09/23 10:18:39;;;;;;;4.40;2.30;;;;;;;20.06;32.50;100419.53;5090819;28;20118;-22
2021/09/23 10:21:05;;;;;;;4.03;2.20;;;;;;;19.88;32.66;100415.53;5109044;28;20092;-22
2021/09/23 10:23:38;;;;;;;3.63;2.20;;;;;;;20.22;32.52;100423.84;5108966;28;20020;-22
2021/09/23 10:26:04;;;;;;;5.82;2.75;;;;;;;20.46;31.69;100405.09;5109087;28;20043;-22
2021/09/23 10:28:29;;;;;;;4.13;2.42;;;;;;;19.87;32.40;100408.47;5074131;28;20038;-22
2021/09/23 10:30:55;;;;;;;5.60;2.63;;;;;;;20.19;32.33;100410.88;5090077;28;20044;-22
2021/09/23 10:33:20;;;;;;;3.90;2.35;;;;;;;20.40;32.48;100378.31;5073680;28;20048;-22
2021/09/23 10:35:46;;;;;;;4.18;2.40;;;;;;;20.32;32.05;100414.88;5108918;28;20031;-22
2021/09/23 10:38:13;;;;;;;4.93;2.33;;;;;;;19.86;31.97;100407.69;5091044;28;20043;-22
2021/09/23 10:40:38;;;;;;;3.35;2.33;;;;;;;20.74;31.24;100410.97;5108942;28;20036;-22
2021/09/23 10:43:15;;;;;;;4.18;2.47;;;;;;;20.42;31.87;100422.97;5110763;28;20085;-22
2021/09/23 10:45:41;;;;;;;3.88;2.22;;;;;;;20.50;31.83;100393.72;5112988;28;20038;-22
2021/09/23 10:48:07;;;;;;;3.30;2.03;;;;;;;21.18;29.11;100415.59;5112869;28;20040;-22
2021/09/23 10:50:34;;;;;;;3.72;2.28;;;;;;;21.41;29.91;100419.53;5094255;28;20024;-22
2021/09/23 10:52:59;;;;;;;4.70;2.03;;;;;;;21.35;30.06;100408.97;5112698;28;20106;-22
2021/09/23 10:55:26;;;;;;;4.15;2.30;;;;;;;20.97;31.41;100414.13;5112511;28;20115;-22
2021/09/23 10:57:53;;;;;;;2.63;1.88;;;;;;;20.75;31.19;100434.28;5112517;28;20487;-22
2021/09/23 11:00:24;;;;;;;3.47;1.70;;;;;;;20.12;31.30;100407.63;5112557;28;20032;-22
2021/09/23 11:02:51;;;;;;;5.07;2.42;;;;;;;20.73;30.95;100420.19;5093963;28;20460;-22
2021/09/23 11:05:16;;;;;;;3.90;2.17;;;;;;;20.55;30.81;100405.31;5112341;28;20027;-22
2021/09/23 11:07:43;;;;;;;5.40;2.10;;;;;;;20.81;31.67;100411.47;5112525;28;20042;-22
2021/09/23 11:10:22;;;;;;;3.97;2.00;;;;;;;20.80;31.31;100399.03;5112345;28;20035;-22
2021/09/23 11:12:50;;;;;;;3.85;2.33;;;;;;;21.53;31.19;100392.03;5112173;28;20095;-22
2021/09/23 11:15:18;;;;;;;2.55;1.77;;;;;;;21.34;29.33;100397.31;5112230;28;20111;-22
2021/09/23 11:17:44;;;;;;;4.60;2.00;;;;;;;21.63;28.42;100391.97;5112266;28;20142;-22